^^
Station Historical Data
Daily Summary for June 21, 2017 Units:  English    Metric   Both
« Previous Day
Next Day »
Daily Weekly Monthly Yearly Custom
  High: Low: Average:
Temperature: 83.2 °F 63.3 °F 73.3 °F
Dew Point: 64.1 °F 57.7 °F 60.6 °F
Humidity: 90% 45% 66%
Wind Speed: 6.0mph 0.0mph 1.1mph
Wind Gust: 15.0mph - -
Wind- - SSW
Pressure: 29.95 in 29.86 in -
Precipitation: 0.00 in    
Historical Graphs
 
 
Tabular Data for June 21, 2017
Time Temperature Dew Point Pressure Wind Wind Speed Wind Gust Humidity Rainfall Rate (Hourly) Conditions
00:00 68.7 °F 57.7 °F 29.94 in Calm   1.0 mph 68% 0.00 in RA
00:15 69.1 °F 57.7 °F 29.94 in Calm   2.0 mph 67% 0.00 in CLR
00:30 68.9 °F 58.3 °F 29.94 in Calm   1.0 mph 69% 0.00 in CLR
00:45 69.4 °F 58.0 °F 29.94 in Calm   2.0 mph 67% 0.00 in CLR
01:00 69.7 °F 57.8 °F 29.93 in South 1.0 mph 3.0 mph 66% 0.00 in CLR
01:15 70.0 °F 58.5 °F 29.93 in Calm   3.0 mph 67% 0.00 in CLR
01:30 69.6 °F 58.6 °F 29.93 in Calm   1.0 mph 68% 0.00 in CLR
01:45 69.0 °F 58.8 °F 29.93 in Calm   1.0 mph 70% 0.00 in CLR
02:00 68.6 °F 59.2 °F 29.93 in Calm   2.0 mph 72% 0.00 in CLR
02:15 67.7 °F 59.1 °F 29.93 in Calm   1.0 mph 74% 0.00 in CLR
02:30 67.2 °F 59.0 °F 29.92 in Calm   2.0 mph 75% 0.00 in CLR
02:45 66.5 °F 59.1 °F 29.92 in Calm   1.0 mph 77% 0.00 in CLR
03:00 65.9 °F 59.2 °F 29.92 in Calm     79% 0.00 in CLR
03:15 66.1 °F 59.7 °F 29.92 in Calm   2.0 mph 80% 0.00 in CLR
03:30 65.9 °F 59.6 °F 29.92 in Calm   2.0 mph 80% 0.00 in CLR
03:45 67.2 °F 60.5 °F 29.92 in SSW 1.0 mph 7.0 mph 79% 0.00 in CLR
04:00 67.8 °F 60.7 °F 29.92 in South 2.0 mph 7.0 mph 78% 0.00 in CLR
04:15 67.7 °F 60.6 °F 29.92 in Calm   5.0 mph 78% 0.00 in CLR
04:30 67.0 °F 60.6 °F 29.92 in Calm   2.0 mph 80% 0.00 in CLR
04:45 66.9 °F 60.9 °F 29.92 in Calm   2.0 mph 81% 0.00 in CLR
05:00 66.4 °F 60.7 °F 29.92 in Calm   1.0 mph 82% 0.00 in CLR
05:15 65.4 °F 60.8 °F 29.92 in Calm   1.0 mph 85% 0.00 in FEW
05:30 64.8 °F 60.5 °F 29.93 in Calm   1.0 mph 86% 0.00 in FEW
05:45 63.7 °F 60.1 °F 29.92 in Calm     88% 0.00 in FEW
06:00 63.3 °F 60.3 °F 29.93 in Calm     90% 0.00 in FEW
06:15 64.6 °F 61.3 °F 29.93 in Calm   4.0 mph 89% 0.00 in FEW
06:30 66.1 °F 61.4 °F 29.94 in SSE 1.0 mph 5.0 mph 85% 0.00 in FEW
06:45 67.0 °F 61.3 °F 29.94 in Calm   4.0 mph 82% 0.00 in FEW
07:00 67.3 °F 60.6 °F 29.94 in Calm   3.0 mph 79% 0.00 in FEW
07:15 67.8 °F 61.0 °F 29.95 in Calm   3.0 mph 79% 0.00 in CLR
07:30 68.3 °F 61.5 °F 29.95 in ENE 1.0 mph 4.0 mph 79% 0.00 in CLR
07:45 68.9 °F 61.7 °F 29.94 in Calm   3.0 mph 78% 0.00 in CLR
08:00 68.7 °F 61.5 °F 29.94 in Calm   1.0 mph 78% 0.00 in CLR
08:14 70.3 °F 61.2 °F 29.94 in Calm   2.0 mph 73% 0.00 in
08:29 71.8 °F 60.2 °F 29.94 in Calm   4.0 mph 67% 0.00 in
08:44 72.7 °F 59.8 °F 29.94 in SSW 2.0 mph 4.0 mph 64% 0.00 in
08:59 72.8 °F 61.2 °F 29.94 in South 1.0 mph 3.0 mph 67% 0.00 in
09:14 74.1 °F 62.0 °F 29.94 in SW 2.0 mph 4.0 mph 66% 0.00 in
09:29 74.6 °F 61.6 °F 29.93 in South 1.0 mph 6.0 mph 64% 0.00 in
09:44 76.2 °F 60.8 °F 29.93 in SSE 2.0 mph 5.0 mph 59% 0.00 in
09:59 75.9 °F 60.5 °F 29.93 in WSW 2.0 mph 6.0 mph 59% 0.00 in
10:14 76.2 °F 61.8 °F 29.93 in Calm   3.0 mph 61% 0.00 in
10:29 77.0 °F 61.6 °F 29.93 in SSW 1.0 mph 5.0 mph 59% 0.00 in
10:44 78.4 °F 61.4 °F 29.93 in SSW 1.0 mph 6.0 mph 56% 0.00 in
10:59 79.8 °F 60.6 °F 29.93 in SSW 3.0 mph 8.0 mph 52% 0.00 in
11:14 78.8 °F 61.3 °F 29.93 in SW 1.0 mph 6.0 mph 55% 0.00 in
11:29 78.2 °F 59.7 °F 29.93 in SW 2.0 mph 8.0 mph 53% 0.00 in
11:44 79.7 °F 60.0 °F 29.93 in SW 2.0 mph 10.0 mph 51% 0.00 in
11:59 80.0 °F 58.0 °F 29.93 in SW 3.0 mph 9.0 mph 47% 0.00 in
12:14 80.4 °F 59.5 °F 29.93 in SW 2.0 mph 8.0 mph 49% 0.00 in
12:45 78.7 °F 57.9 °F 29.92 in WSW 3.0 mph 12.0 mph 49% 0.00 in CLR
13:00 78.2 °F 58.1 °F 29.91 in SW 2.0 mph 8.0 mph 50% 0.00 in CLR
13:15 80.7 °F 58.6 °F 29.91 in WSW 5.0 mph 10.0 mph 47% 0.00 in SCT
13:45 81.4 °F 58.6 °F 29.90 in SSW 3.0 mph 12.0 mph 46% 0.00 in SCT
14:00 81.4 °F 58.7 °F 29.89 in South 3.0 mph 13.0 mph 46% 0.00 in SCT
14:15 82.1 °F 58.6 °F 29.89 in WSW 5.0 mph 10.0 mph 45% 0.00 in SCT
14:30 82.0 °F 59.2 °F 29.88 in SW 5.0 mph 13.0 mph 46% 0.00 in SCT
14:45 82.6 °F 59.1 °F 29.88 in WSW 3.0 mph 12.0 mph 45% 0.00 in SCT
15:00 83.2 °F 59.6 °F 29.88 in SSW 5.0 mph 12.0 mph 45% 0.00 in SCT
15:15 82.1 °F 59.9 °F 29.87 in SSW 3.0 mph 10.0 mph 47% 0.00 in SCT
15:30 82.0 °F 59.7 °F 29.87 in WSW 3.0 mph 12.0 mph 47% 0.00 in SCT
15:45 80.8 °F 59.3 °F 29.86 in SW 3.0 mph 8.0 mph 48% 0.00 in SCT
16:00 80.6 °F 58.5 °F 29.87 in SSW 3.0 mph 9.0 mph 47% 0.00 in SCT
16:15 80.9 °F 59.4 °F 29.86 in WSW 2.0 mph 7.0 mph 48% 0.00 in SCT
16:30 80.7 °F 59.7 °F 29.86 in SE 1.0 mph 7.0 mph 49% 0.00 in SCT
16:45 80.2 °F 59.9 °F 29.86 in SSE 1.0 mph 6.0 mph 50% 0.00 in SCT
17:00 78.7 °F 61.7 °F 29.88 in SSW 6.0 mph 12.0 mph 56% 0.00 in SCT
17:15 76.7 °F 62.7 °F 29.87 in SSW 2.0 mph 15.0 mph 62% 0.00 in BKN
17:30 78.4 °F 63.3 °F 29.87 in SSW 2.0 mph 10.0 mph 60% 0.00 in BKN
18:00 78.5 °F 62.5 °F 29.87 in SSW 2.0 mph 14.0 mph 58% 0.00 in BKN
18:15 79.0 °F 62.0 °F 29.86 in SW 3.0 mph 7.0 mph 56% 0.00 in BKN
18:30 79.5 °F 62.4 °F 29.86 in SW 3.0 mph 7.0 mph 56% 0.00 in BKN
18:45 79.4 °F 62.8 °F 29.87 in SW 2.0 mph 7.0 mph 57% 0.00 in BKN
19:00 79.4 °F 63.3 °F 29.87 in SW 2.0 mph 5.0 mph 58% 0.00 in BKN
19:15 77.9 °F 62.9 °F 29.88 in Calm   5.0 mph 60% 0.00 in FEW
19:30 79.3 °F 63.7 °F 29.88 in SW 1.0 mph 5.0 mph 59% 0.00 in FEW
19:45 78.7 °F 64.1 °F 29.88 in SSW 1.0 mph 3.0 mph 61% 0.00 in FEW
20:00 77.6 °F 63.5 °F 29.88 in Calm   4.0 mph 62% 0.00 in FEW
20:15 77.0 °F 63.9 °F 29.88 in Calm   2.0 mph 64% 0.00 in FEW
20:30 76.1 °F 63.9 °F 29.89 in Calm   1.0 mph 66% 0.00 in FEW
20:45 74.8 °F 63.9 °F 29.90 in Calm     69% 0.00 in FEW
21:00 73.2 °F 63.2 °F 29.90 in Calm     71% 0.00 in FEW
21:15 71.8 °F 63.1 °F 29.91 in Calm     74% 0.00 in SCT
21:30 70.8 °F 62.1 °F 29.92 in Calm     74% 0.00 in SCT
21:45 70.1 °F 61.8 °F 29.92 in Calm     75% 0.00 in SCT
22:00 69.2 °F 62.1 °F 29.92 in Calm     78% 0.00 in SCT
22:15 68.3 °F 61.6 °F 29.93 in Calm     79% 0.00 in SCT
22:30 68.1 °F 61.0 °F 29.93 in Calm     78% 0.00 in SCT
22:45 67.6 °F 61.6 °F 29.93 in Calm     81% 0.00 in SCT
23:00 67.5 °F 61.1 °F 29.94 in Calm     80% 0.00 in SCT
23:15 68.3 °F 60.4 °F 29.94 in Calm     76% 0.00 in FEW
23:30 69.5 °F 60.4 °F 29.95 in ENE 1.0 mph 4.0 mph 73% 0.00 in FEW
23:45 70.4 °F 60.5 °F 29.95 in Calm   3.0 mph 71% 0.00 in FEW
TarryTown NY Weather
Compliments of Weather Underground - 1.5 mb